Time,TemperatureF,DewpointF,PressureIn,WindDirection,WindDirectionDegrees,WindSpeedMPH,WindSpeedGustMPH,Humidity,HourlyPrecipIn,Conditions,Clouds,dailyrainin,SoftwareType,DateUTC
2013-12-23 00:00:00,47.3,40.5,29.99,NW,313,5.0,11.0,77,0.00,,OVC019,0.00,VWS V15.00,2013-12-23 05:00:00,
2013-12-23 00:01:00,47.0,40.5,29.99,NW,308,3.0,11.0,78,0.00,,OVC020,0.00,VWS V15.00,2013-12-23 05:01:00,
2013-12-23 00:02:00,46.7,40.2,29.99,NW,313,3.0,11.0,78,0.00,,OVC019,0.00,VWS V15.00,2013-12-23 05:02:00,
2013-12-23 00:07:00,45.5,39.7,29.99,WNW,301,1.0,11.0,80,0.00,,OVC019,0.00,VWS V15.00,2013-12-23 05:07:00,
2013-12-23 00:12:00,44.8,39.3,29.99,West,278,4.0,8.0,81,0.00,,OVC019,0.00,VWS V15.00,2013-12-23 05:12:00,
2013-12-23 00:15:00,44.8,39.7,29.99,NNW,335,2.0,8.0,82,0.00,,OVC019,0.00,VWS V15.00,2013-12-23 05:15:00,
2013-12-23 00:17:00,44.6,39.5,29.99,NW,323,4.0,8.0,82,0.00,,OVC019,0.00,VWS V15.00,2013-12-23 05:17:00,
2013-12-23 00:22:00,44.3,39.2,29.99,NW,308,3.0,11.0,82,0.00,,OVC019,0.00,VWS V15.00,2013-12-23 05:22:00,
2013-12-23 00:27:00,44.2,39.4,29.99,NNW,346,2.0,11.0,83,0.00,,OVC019,0.00,VWS V15.00,2013-12-23 05:27:00,
2013-12-23 00:30:00,44.1,39.3,30.00,WNW,284,0.0,11.0,83,0.00,,OVC019,0.00,VWS V15.00,2013-12-23 05:30:00,
2013-12-23 00:32:00,44.1,39.6,30.00,WNW,284,2.0,11.0,84,0.00,,OVC019,0.00,VWS V15.00,2013-12-23 05:32:00,
2013-12-23 00:37:00,43.9,39.4,30.00,WNW,301,0.0,9.0,84,0.00,,OVC019,0.00,VWS V15.00,2013-12-23 05:37:00,
2013-12-23 00:42:00,43.6,39.1,30.00,WNW,289,0.0,9.0,84,0.00,,OVC019,0.00,VWS V15.00,2013-12-23 05:42:00,
2013-12-23 00:45:00,43.6,39.4,30.00,WNW,289,0.0,5.0,85,0.00,,OVC019,0.00,VWS V15.00,2013-12-23 05:45:00,
2013-12-23 00:47:00,43.5,39.3,30.00,West,275,0.0,6.0,85,0.00,,OVC014,0.00,VWS V15.00,2013-12-23 05:47:00,
2013-12-23 00:52:00,43.5,39.6,30.00,WNW,301,0.0,7.0,86,0.00,,OVC014,0.00,VWS V15.00,2013-12-23 05:52:00,
2013-12-23 00:57:00,43.3,39.4,30.00,NW,306,0.0,6.0,86,0.00,,OVC014,0.00,VWS V15.00,2013-12-23 05:57:00,
2013-12-23 01:00:00,43.2,39.3,30.01,West,260,0.0,6.0,86,0.00,,OVC019,0.00,VWS V15.00,2013-12-23 06:00:00,
2013-12-23 01:02:00,43.2,39.6,30.01,WNW,287,0.0,6.0,87,0.00,,OVC016,0.00,VWS V15.00,2013-12-23 06:02:00,
2013-12-23 01:07:00,43.1,39.5,30.01,NW,319,0.0,4.0,87,0.00,,OVC016,0.00,VWS V15.00,2013-12-23 06:07:00,
2013-12-23 01:12:00,42.9,39.3,30.01,WNW,291,0.0,3.0,87,0.00,,OVC016,0.00,VWS V15.00,2013-12-23 06:12:00,
2013-12-23 01:15:00,42.8,39.2,30.02,WNW,291,0.0,3.0,87,0.00,,OVC019,0.00,VWS V15.00,2013-12-23 06:15:00,
2013-12-23 01:17:00,42.8,39.2,30.02,WNW,291,0.0,3.0,87,0.00,,OVC020,0.00,VWS V15.00,2013-12-23 06:17:00,
2013-12-23 01:22:00,42.6,39.0,30.02,WNW,294,2.0,6.0,87,0.00,,OVC020,0.00,VWS V15.00,2013-12-23 06:22:00,
2013-12-23 01:27:00,42.5,39.2,30.02,West,281,0.0,6.0,88,0.00,,OVC020,0.00,VWS V15.00,2013-12-23 06:27:00,
2013-12-23 01:30:00,42.5,39.2,30.02,WNW,295,1.0,7.0,88,0.00,,OVC019,0.00,VWS V15.00,2013-12-23 06:30:00,
2013-12-23 01:32:00,42.3,39.0,30.02,West,263,0.0,7.0,88,0.00,,OVC020,0.00,VWS V15.00,2013-12-23 06:32:00,
2013-12-23 01:37:00,42.2,38.9,30.02,WNW,288,0.0,6.0,88,0.00,,OVC020,0.00,VWS V15.00,2013-12-23 06:37:00,
2013-12-23 01:42:00,42.2,39.2,30.02,WNW,288,0.0,5.0,89,0.00,,OVC020,0.00,VWS V15.00,2013-12-23 06:42:00,
2013-12-23 01:45:00,42.2,39.2,30.03,WNW,288,0.0,0.0,89,0.00,,OVC019,0.00,VWS V15.00,2013-12-23 06:45:00,
2013-12-23 01:47:00,42.2,39.2,30.03,WNW,285,0.0,0.0,89,0.00,,OVC020,0.00,VWS V15.00,2013-12-23 06:47:00,
2013-12-23 01:52:00,42.1,39.1,30.03,WNW,295,1.0,6.0,89,0.01,,OVC020,0.01,VWS V15.00,2013-12-23 06:52:00,
2013-12-23 01:57:00,41.9,38.9,30.03,NNW,342,2.0,10.0,89,0.01,,OVC020,0.01,VWS V15.00,2013-12-23 06:57:00,
2013-12-23 02:00:00,41.6,38.3,30.04,WNW,292,3.0,11.0,88,0.01,,OVC019,0.01,VWS V15.00,2013-12-23 07:00:00,
2013-12-23 02:02:00,41.3,38.0,30.04,WSW,247,3.0,13.0,88,0.01,,-RA,0.01,VWS V15.00,2013-12-23 07:02:00,
2013-12-23 02:07:00,40.9,37.6,30.04,SW,224,0.0,13.0,88,0.01,,-RA,0.01,VWS V15.00,2013-12-23 07:07:00,
2013-12-23 02:12:00,40.8,37.5,30.04,NW,311,6.0,13.0,88,0.01,,-RA,0.01,VWS V15.00,2013-12-23 07:12:00,
2013-12-23 02:15:00,40.6,37.3,30.05,WNW,292,0.0,7.0,88,0.01,,OVC019,0.01,VWS V15.00,2013-12-23 07:15:00,
2013-12-23 02:17:00,40.6,37.3,30.05,West,267,2.0,7.0,88,0.01,,-RA,0.01,VWS V15.00,2013-12-23 07:17:00,
2013-12-23 02:22:00,40.5,37.2,30.05,West,277,4.0,8.0,88,0.01,,-RA,0.01,VWS V15.00,2013-12-23 07:22:00,
2013-12-23 02:27:00,40.3,37.0,30.05,WNW,287,0.0,8.0,88,0.01,,-RA,0.01,VWS V15.00,2013-12-23 07:27:00,
2013-12-23 02:30:00,40.3,37.3,30.05,WNW,287,0.0,8.0,89,0.01,,OVC019,0.01,VWS V15.00,2013-12-23 07:30:00,
2013-12-23 02:32:00,40.3,37.3,30.05,WSW,239,0.0,10.0,89,0.01,,-RA,0.01,VWS V15.00,2013-12-23 07:32:00,
2013-12-23 02:37:00,40.2,37.2,30.05,NW,306,0.0,10.0,89,0.01,,-RA,0.01,VWS V15.00,2013-12-23 07:37:00,
2013-12-23 02:42:00,40.1,37.1,30.05,WNW,292,6.0,7.0,89,0.02,,-RA,0.02,VWS V15.00,2013-12-23 07:42:00,
2013-12-23 02:45:00,40.1,37.1,30.06,West,275,0.0,7.0,89,0.02,,OVC019,0.02,VWS V15.00,2013-12-23 07:45:00,
2013-12-23 02:47:00,39.9,36.9,30.06,NW,304,0.0,7.0,89,0.02,,-RA,0.02,VWS V15.00,2013-12-23 07:47:00,
2013-12-23 02:52:00,39.9,36.9,30.06,WNW,294,0.0,8.0,89,0.02,,-RA,0.02,VWS V15.00,2013-12-23 07:52:00,
2013-12-23 02:57:00,39.9,36.9,30.06,WSW,257,0.0,6.0,89,0.02,,-RA,0.02,VWS V15.00,2013-12-23 07:57:00,
2013-12-23 03:00:00,39.9,36.9,30.06,WSW,257,2.0,6.0,89,0.02,,OVC019,0.02,VWS V15.00,2013-12-23 08:00:00,
2013-12-23 03:02:00,39.8,36.8,30.06,WSW,253,0.0,6.0,89,0.01,,-RA,0.02,VWS V15.00,2013-12-23 08:02:00,
2013-12-23 03:07:00,39.8,37.1,30.06,WSW,241,1.0,6.0,90,0.01,,-RA,0.02,VWS V15.00,2013-12-23 08:07:00,
2013-12-23 03:12:00,39.8,37.1,30.06,WNW,284,0.0,6.0,90,0.01,,-RA,0.02,VWS V15.00,2013-12-23 08:12:00,
2013-12-23 03:15:00,39.8,37.1,30.07,WNW,294,2.0,8.0,90,0.01,,OVC019,0.02,VWS V15.00,2013-12-23 08:15:00,
2013-12-23 03:17:00,39.6,36.9,30.07,WNW,282,7.0,8.0,90,0.01,,-RA,0.02,VWS V15.00,2013-12-23 08:17:00,
2013-12-23 03:22:00,39.5,36.5,30.07,NNW,328,2.0,14.0,89,0.01,,-RA,0.02,VWS V15.00,2013-12-23 08:22:00,
2013-12-23 03:27:00,39.2,36.2,30.07,West,275,10.0,14.0,89,0.01,,-RA,0.02,VWS V15.00,2013-12-23 08:27:00,
2013-12-23 03:30:00,39.1,36.1,30.07,WSW,251,3.0,11.0,89,0.01,,OVC019,0.02,VWS V15.00,2013-12-23 08:30:00,
2013-12-23 03:32:00,38.9,35.9,30.07,WNW,289,0.0,11.0,89,0.01,,-RA,0.02,VWS V15.00,2013-12-23 08:32:00,
2013-12-23 03:37:00,38.9,35.9,30.07,WNW,282,0.0,6.0,89,0.01,,-RA,0.02,VWS V15.00,2013-12-23 08:37:00,
2013-12-23 03:42:00,38.9,35.9,30.07,WNW,288,0.0,8.0,89,0.01,,-RA,0.02,VWS V15.00,2013-12-23 08:42:00,
2013-12-23 03:45:00,38.8,35.8,30.07,West,272,3.0,8.0,89,0.01,,OVC023,0.02,VWS V15.00,2013-12-23 08:45:00,
2013-12-23 03:47:00,38.6,35.6,30.07,West,274,0.0,11.0,89,0.00,,-RA,0.02,VWS V15.00,2013-12-23 08:47:00,
2013-12-23 03:52:00,38.5,35.5,30.07,West,272,5.0,11.0,89,0.00,,-RA,0.02,VWS V15.00,2013-12-23 08:52:00,
2013-12-23 03:57:00,38.5,35.5,30.07,WNW,291,0.0,9.0,89,0.00,,-RA,0.02,VWS V15.00,2013-12-23 08:57:00,
2013-12-23 04:00:00,38.5,35.5,30.08,WNW,289,0.0,9.0,89,0.00,,OVC023,0.02,VWS V15.00,2013-12-23 09:00:00,
2013-12-23 04:02:00,38.5,35.5,30.08,WNW,288,5.0,7.0,89,0.00,,OVC045,0.02,VWS V15.00,2013-12-23 09:02:00,
2013-12-23 04:07:00,38.3,35.1,30.08,West,275,2.0,7.0,88,0.00,,OVC045,0.02,VWS V15.00,2013-12-23 09:07:00,
2013-12-23 04:12:00,38.2,35.0,30.08,SW,234,3.0,10.0,88,0.00,,OVC045,0.02,VWS V15.00,2013-12-23 09:12:00,
2013-12-23 04:15:00,38.2,35.0,30.08,West,271,7.0,10.0,88,0.00,,OVC019,0.02,VWS V15.00,2013-12-23 09:15:00,
2013-12-23 04:17:00,38.2,35.0,30.08,WNW,291,0.0,10.0,88,0.00,,OVC045,0.02,VWS V15.00,2013-12-23 09:17:00,
2013-12-23 04:22:00,38.2,35.2,30.08,WSW,248,1.0,10.0,89,0.00,,OVC045,0.02,VWS V15.00,2013-12-23 09:22:00,
2013-12-23 04:27:00,38.3,35.3,30.08,West,263,0.0,5.0,89,0.00,,OVC045,0.02,VWS V15.00,2013-12-23 09:27:00,
2013-12-23 04:30:00,38.3,35.3,30.07,West,275,0.0,5.0,89,0.00,,OVC019,0.02,VWS V15.00,2013-12-23 09:30:00,
2013-12-23 04:32:00,38.3,35.3,30.07,WSW,248,4.0,11.0,89,0.00,,-RA,0.02,VWS V15.00,2013-12-23 09:32:00,
2013-12-23 04:37:00,38.2,35.2,30.07,West,278,3.0,11.0,89,0.00,,-RA,0.02,VWS V15.00,2013-12-23 09:37:00,
2013-12-23 04:42:00,38.2,35.2,30.07,WNW,287,3.0,7.0,89,0.00,,-RA,0.02,VWS V15.00,2013-12-23 09:42:00,
2013-12-23 04:45:00,38.0,34.8,30.08,WNW,295,0.0,12.0,88,0.00,,OVC019,0.02,VWS V15.00,2013-12-23 09:45:00,
2013-12-23 04:47:00,38.0,34.8,30.08,WNW,287,1.0,12.0,88,0.00,,-RA,0.02,VWS V15.00,2013-12-23 09:47:00,
2013-12-23 04:52:00,37.8,34.6,30.08,WSW,258,0.0,11.0,88,0.00,,-RA,0.02,VWS V15.00,2013-12-23 09:52:00,
2013-12-23 04:57:00,37.8,34.3,30.08,NW,309,0.0,8.0,87,0.00,,-RA,0.02,VWS V15.00,2013-12-23 09:57:00,
2013-12-23 05:00:00,37.8,34.3,30.09,NW,308,0.0,8.0,87,0.00,,OVC019,0.02,VWS V15.00,2013-12-23 10:00:00,
2013-12-23 05:02:00,37.8,34.3,30.09,WNW,299,0.0,7.0,87,0.00,,OVC046,0.02,VWS V15.00,2013-12-23 10:02:00,
2013-12-23 05:07:00,37.8,34.3,30.09,West,277,0.0,7.0,87,0.00,,OVC046,0.02,VWS V15.00,2013-12-23 10:07:00,
2013-12-23 05:12:00,37.6,33.8,30.09,NW,313,2.0,12.0,86,0.00,,OVC046,0.02,VWS V15.00,2013-12-23 10:12:00,
2013-12-23 05:15:00,37.6,33.8,30.09,WNW,288,2.0,12.0,86,0.00,,OVC019,0.02,VWS V15.00,2013-12-23 10:15:00,
2013-12-23 05:17:00,37.5,33.7,30.09,NNW,332,5.0,11.0,86,0.00,,OVC046,0.02,VWS V15.00,2013-12-23 10:17:00,
2013-12-23 05:22:00,37.5,34.0,30.09,West,267,0.0,11.0,87,0.00,,OVC046,0.02,VWS V15.00,2013-12-23 10:22:00,
2013-12-23 05:27:00,37.5,33.7,30.09,WNW,292,2.0,11.0,86,0.00,,OVC046,0.02,VWS V15.00,2013-12-23 10:27:00,
2013-12-23 05:30:00,37.3,33.5,30.09,WNW,295,7.0,10.0,86,0.00,,OVC019,0.02,VWS V15.00,2013-12-23 10:30:00,
2013-12-23 05:32:00,37.2,33.4,30.09,NNW,343,2.0,10.0,86,0.00,,OVC027,0.02,VWS V15.00,2013-12-23 10:32:00,
2013-12-23 05:37:00,37.2,33.4,30.09,NW,323,2.0,10.0,86,0.00,,OVC027,0.02,VWS V15.00,2013-12-23 10:37:00,
2013-12-23 05:42:00,37.0,33.2,30.09,NW,309,7.0,13.0,86,0.00,,OVC027,0.02,VWS V15.00,2013-12-23 10:42:00,
2013-12-23 05:45:00,37.0,33.2,30.09,NW,326,0.0,13.0,86,0.00,,OVC019,0.02,VWS V15.00,2013-12-23 10:45:00,
2013-12-23 05:47:00,36.8,33.0,30.09,WNW,285,0.0,13.0,86,0.00,,OVC028,0.02,VWS V15.00,2013-12-23 10:47:00,
2013-12-23 05:52:00,36.5,32.7,30.09,West,280,3.0,13.0,86,0.00,,OVC028,0.02,VWS V15.00,2013-12-23 10:52:00,
2013-12-23 05:57:00,36.2,32.1,30.09,West,265,2.0,13.0,85,0.00,,OVC028,0.02,VWS V15.00,2013-12-23 10:57:00,
2013-12-23 06:00:00,36.2,32.1,30.11,NW,308,2.0,6.0,85,0.00,,OVC019,0.02,VWS V15.00,2013-12-23 11:00:00,
2013-12-23 06:02:00,36.2,32.1,30.11,NW,312,6.0,10.0,85,0.00,,OVC015,0.02,VWS V15.00,2013-12-23 11:02:00,
2013-12-23 06:07:00,36.2,31.8,30.11,NNW,333,0.0,10.0,84,0.00,,OVC015,0.02,VWS V15.00,2013-12-23 11:07:00,
2013-12-23 06:12:00,36.2,31.8,30.11,NW,318,0.0,5.0,84,0.00,,OVC015,0.02,VWS V15.00,2013-12-23 11:12:00,
2013-12-23 06:15:00,36.0,31.6,30.11,West,263,2.0,5.0,84,0.00,,OVC019,0.02,VWS V15.00,2013-12-23 11:15:00,
2013-12-23 06:17:00,36.0,31.6,30.11,WNW,292,1.0,7.0,84,0.00,,OVC015,0.02,VWS V15.00,2013-12-23 11:17:00,
2013-12-23 06:22:00,36.0,31.6,30.11,NNW,347,0.0,7.0,84,0.00,,OVC015,0.02,VWS V15.00,2013-12-23 11:22:00,
2013-12-23 06:27:00,36.0,31.4,30.11,NW,320,0.0,7.0,83,0.00,,OVC015,0.02,VWS V15.00,2013-12-23 11:27:00,
2013-12-23 06:30:00,35.9,31.2,30.12,NW,323,0.0,7.0,83,0.00,,OVC019,0.02,VWS V15.00,2013-12-23 11:30:00,
2013-12-23 06:32:00,35.9,31.2,30.12,WSW,247,6.0,7.0,83,0.00,,OVC015,0.02,VWS V15.00,2013-12-23 11:32:00,
2013-12-23 06:37:00,35.9,31.0,30.12,NNW,343,1.0,10.0,82,0.00,,OVC015,0.02,VWS V15.00,2013-12-23 11:37:00,
2013-12-23 06:42:00,35.6,30.7,30.12,West,281,0.0,10.0,82,0.00,,OVC015,0.02,VWS V15.00,2013-12-23 11:42:00,
2013-12-23 06:45:00,35.6,30.7,30.14,NW,308,6.0,8.0,82,0.00,,OVC019,0.02,VWS V15.00,2013-12-23 11:45:00,
2013-12-23 06:47:00,35.6,30.7,30.14,North,356,6.0,9.0,82,0.00,,OVC015,0.02,VWS V15.00,2013-12-23 11:47:00,
2013-12-23 06:52:00,35.6,30.7,30.14,WSW,246,2.0,9.0,82,0.00,,OVC015,0.02,VWS V15.00,2013-12-23 11:52:00,
2013-12-23 06:57:00,35.5,30.6,30.14,WNW,289,4.0,10.0,82,0.00,,OVC015,0.02,VWS V15.00,2013-12-23 11:57:00,
2013-12-23 07:00:00,35.5,30.6,30.15,WNW,292,2.0,10.0,82,0.00,,OVC019,0.02,VWS V15.00,2013-12-23 12:00:00,
2013-12-23 07:02:00,35.5,30.6,30.15,NW,306,6.0,10.0,82,0.00,,OVC015,0.02,VWS V15.00,2013-12-23 12:02:00,
2013-12-23 07:07:00,35.2,30.3,30.15,WNW,295,2.0,9.0,82,0.00,,OVC015,0.02,VWS V15.00,2013-12-23 12:07:00,
2013-12-23 07:12:00,34.9,30.0,30.15,NW,311,6.0,13.0,82,0.00,,OVC015,0.02,VWS V15.00,2013-12-23 12:12:00,
2013-12-23 07:15:00,34.7,29.8,30.16,North,350,0.0,13.0,82,0.00,,OVC019,0.02,VWS V15.00,2013-12-23 12:15:00,
2013-12-23 07:17:00,34.6,29.7,30.16,NW,306,0.0,13.0,82,0.00,,OVC015,0.02,VWS V15.00,2013-12-23 12:17:00,
2013-12-23 07:22:00,34.3,29.4,30.16,WNW,287,5.0,12.0,82,0.00,,OVC015,0.02,VWS V15.00,2013-12-23 12:22:00,
2013-12-23 07:27:00,34.1,29.2,30.16,NW,311,6.0,13.0,82,0.00,,OVC015,0.02,VWS V15.00,2013-12-23 12:27:00,
2013-12-23 07:30:00,34.0,28.8,30.18,NW,316,2.0,13.0,81,0.00,,OVC019,0.02,VWS V15.00,2013-12-23 12:30:00,
2013-12-23 07:32:00,34.0,28.8,30.18,NW,319,5.0,13.0,81,0.00,,OVC015,0.02,VWS V15.00,2013-12-23 12:32:00,
2013-12-23 07:37:00,33.8,28.6,30.18,NW,313,1.0,10.0,81,0.00,,OVC015,0.02,VWS V15.00,2013-12-23 12:37:00,
2013-12-23 07:42:00,33.8,28.6,30.18,WNW,301,8.0,10.0,81,0.00,,OVC015,0.02,VWS V15.00,2013-12-23 12:42:00,
2013-12-23 07:45:00,33.7,28.5,30.19,West,267,0.0,10.0,81,0.00,,OVC019,0.02,VWS V15.00,2013-12-23 12:45:00,
2013-12-23 07:47:00,33.7,28.2,30.19,West,271,1.0,10.0,80,0.00,,OVC015,0.02,VWS V15.00,2013-12-23 12:47:00,
2013-12-23 07:52:00,33.7,28.2,30.19,WNW,301,5.0,8.0,80,0.00,,OVC015,0.02,VWS V15.00,2013-12-23 12:52:00,
2013-12-23 07:57:00,33.7,27.9,30.19,WNW,298,4.0,11.0,79,0.00,,OVC015,0.02,VWS V15.00,2013-12-23 12:57:00,
2013-12-23 08:00:00,33.7,27.9,30.20,West,267,3.0,12.0,79,0.00,,OVC019,0.02,VWS V15.00,2013-12-23 13:00:00,
2013-12-23 08:02:00,33.7,27.6,30.20,WNW,302,5.0,17.0,78,0.00,,OVC019,0.02,VWS V15.00,2013-12-23 13:02:00,
2013-12-23 08:07:00,33.7,27.6,30.20,NW,315,5.0,17.0,78,0.00,,OVC019,0.02,VWS V15.00,2013-12-23 13:07:00,
2013-12-23 08:12:00,33.5,27.4,30.20,WNW,287,1.0,14.0,78,0.00,,OVC019,0.02,VWS V15.00,2013-12-23 13:12:00,
2013-12-23 08:15:00,33.5,27.7,30.22,NW,323,0.0,11.0,79,0.00,,OVC019,0.02,VWS V15.00,2013-12-23 13:15:00,
2013-12-23 08:24:00,33.4,27.3,30.22,WNW,299,0.0,0.0,78,0.00,,OVC019,0.02,VWS V15.00,2013-12-23 13:24:00,
2013-12-23 08:29:00,33.2,27.1,30.22,North,359,1.0,13.0,78,0.00,,OVC019,0.02,VWS V15.00,2013-12-23 13:29:00,
2013-12-23 08:30:00,33.2,27.1,30.22,WNW,294,0.0,13.0,78,0.00,,OVC023,0.02,VWS V15.00,2013-12-23 13:30:00,
2013-12-23 08:34:00,33.4,27.6,30.22,WNW,299,6.0,13.0,79,0.00,,OVC019,0.02,VWS V15.00,2013-12-23 13:34:00,
2013-12-23 08:39:00,33.2,27.4,30.22,WNW,284,3.0,12.0,79,0.00,,OVC019,0.02,VWS V15.00,2013-12-23 13:39:00,
2013-12-23 08:44:00,33.2,27.1,30.22,West,270,4.0,12.0,78,0.00,,OVC019,0.02,VWS V15.00,2013-12-23 13:44:00,
2013-12-23 08:45:00,33.2,27.1,30.23,WNW,292,0.0,12.0,78,0.00,,OVC023,0.02,VWS V15.00,2013-12-23 13:45:00,
2013-12-23 08:49:00,33.2,26.8,30.23,West,281,6.0,11.0,77,0.00,,OVC019,0.02,VWS V15.00,2013-12-23 13:49:00,
2013-12-23 08:54:00,33.2,26.5,30.23,NW,311,0.0,11.0,76,0.00,,OVC019,0.02,VWS V15.00,2013-12-23 13:54:00,
2013-12-23 08:59:00,33.2,26.5,30.23,WNW,291,4.0,8.0,76,0.00,,OVC019,0.02,VWS V15.00,2013-12-23 13:59:00,
2013-12-23 09:00:00,33.2,26.5,30.24,West,261,4.0,8.0,76,0.00,,OVC023,0.02,VWS V15.00,2013-12-23 14:00:00,
2013-12-23 09:04:00,33.4,26.7,30.24,WSW,256,6.0,7.0,76,0.00,,OVC023,0.02,VWS V15.00,2013-12-23 14:04:00,
2013-12-23 09:09:00,33.4,26.3,30.24,WNW,284,0.0,7.0,75,0.00,,OVC023,0.02,VWS V15.00,2013-12-23 14:09:00,
2013-12-23 09:14:00,33.5,26.8,30.24,WNW,292,0.0,7.0,76,0.00,,OVC023,0.02,VWS V15.00,2013-12-23 14:14:00,
2013-12-23 09:15:00,33.5,26.8,30.25,WNW,298,0.0,7.0,76,0.00,,OVC023,0.02,VWS V15.00,2013-12-23 14:15:00,
2013-12-23 09:19:00,33.5,26.8,30.25,WNW,299,6.0,8.0,76,0.00,,OVC023,0.02,VWS V15.00,2013-12-23 14:19:00,
2013-12-23 09:24:00,33.5,26.8,30.25,NNW,333,0.0,8.0,76,0.00,,OVC023,0.02,VWS V15.00,2013-12-23 14:24:00,
2013-12-23 09:29:00,33.5,26.8,30.25,WNW,294,6.0,11.0,76,0.00,,OVC023,0.02,VWS V15.00,2013-12-23 14:29:00,
2013-12-23 09:30:00,33.5,26.8,30.26,West,274,3.0,11.0,76,0.00,,CLR,0.02,VWS V15.00,2013-12-23 14:30:00,
2013-12-23 09:34:00,33.4,26.3,30.26,NW,313,3.0,10.0,75,0.00,,OVC023,0.02,VWS V15.00,2013-12-23 14:34:00,
2013-12-23 09:39:00,33.4,26.3,30.26,NW,320,1.0,10.0,75,0.00,,OVC023,0.02,VWS V15.00,2013-12-23 14:39:00,
2013-12-23 09:43:00,33.4,26.7,30.26,WNW,282,2.0,7.0,76,0.00,,OVC023,0.02,VWS V15.00,2013-12-23 14:43:00,
2013-12-23 09:45:00,33.5,26.8,30.27,NNW,328,0.0,7.0,76,0.00,,OVC023,0.02,VWS V15.00,2013-12-23 14:45:00,
2013-12-23 09:48:00,33.5,26.8,30.27,NW,320,1.0,6.0,76,0.00,,OVC023,0.02,VWS V15.00,2013-12-23 14:48:00,
2013-12-23 09:49:00,33.5,26.8,30.27,NW,320,0.0,6.0,76,0.00,,OVC023,0.02,VWS V15.00,2013-12-23 14:49:00,
2013-12-23 09:54:00,33.5,26.4,30.27,WNW,285,2.0,12.0,75,0.00,,OVC023,0.02,VWS V15.00,2013-12-23 14:54:00,
2013-12-23 09:59:00,33.4,26.3,30.27,NW,311,8.0,14.0,75,0.00,,OVC023,0.02,VWS V15.00,2013-12-23 14:59:00,
2013-12-23 10:00:00,33.4,26.3,30.28,NW,308,0.0,14.0,75,0.00,,OVC023,0.02,VWS V15.00,2013-12-23 15:00:00,
2013-12-23 10:04:00,33.4,26.3,30.28,WNW,285,5.0,14.0,75,0.00,,OVC023,0.02,VWS V15.00,2013-12-23 15:04:00,
2013-12-23 10:09:00,33.4,26.0,30.28,WNW,284,0.0,7.0,74,0.00,,OVC023,0.02,VWS V15.00,2013-12-23 15:09:00,
2013-12-23 10:14:00,33.5,26.1,30.28,West,281,4.0,6.0,74,0.00,,OVC023,0.02,VWS V15.00,2013-12-23 15:14:00,
2013-12-23 10:15:00,33.5,25.8,30.28,NW,316,1.0,6.0,73,0.00,,OVC023,0.02,VWS V15.00,2013-12-23 15:15:00,
2013-12-23 10:19:00,33.4,25.7,30.28,West,278,2.0,9.0,73,0.00,,OVC023,0.02,VWS V15.00,2013-12-23 15:19:00,
2013-12-23 10:24:00,33.2,25.8,30.28,WNW,289,9.0,9.0,74,0.00,,OVC023,0.02,VWS V15.00,2013-12-23 15:24:00,
2013-12-23 10:29:00,33.2,25.8,30.28,West,260,2.0,10.0,74,0.00,,OVC023,0.02,VWS V15.00,2013-12-23 15:29:00,
2013-12-23 10:30:00,33.2,25.8,30.29,West,265,0.0,10.0,74,0.00,,OVC023,0.02,VWS V15.00,2013-12-23 15:30:00,
2013-12-23 10:34:00,33.2,25.5,30.29,WNW,287,0.0,8.0,73,0.00,,OVC023,0.02,VWS V15.00,2013-12-23 15:34:00,
2013-12-23 10:39:00,33.1,25.7,30.29,WNW,292,3.0,8.0,74,0.00,,OVC023,0.02,VWS V15.00,2013-12-23 15:39:00,
2013-12-23 10:44:00,33.2,25.8,30.29,West,260,0.0,9.0,74,0.00,,OVC023,0.02,VWS V15.00,2013-12-23 15:44:00,
2013-12-23 10:45:00,33.2,25.8,30.30,West,260,0.0,9.0,74,0.00,,OVC023,0.02,VWS V15.00,2013-12-23 15:45:00,
2013-12-23 10:49:00,33.2,25.5,30.30,West,278,0.0,9.0,73,0.00,,OVC023,0.02,VWS V15.00,2013-12-23 15:49:00,
2013-12-23 10:54:00,33.1,25.4,30.30,West,271,1.0,11.0,73,0.00,,OVC023,0.02,VWS V15.00,2013-12-23 15:54:00,
2013-12-23 10:59:00,33.1,25.4,30.30,West,274,6.0,10.0,73,0.00,,OVC023,0.02,VWS V15.00,2013-12-23 15:59:00,
2013-12-23 11:00:00,33.1,25.4,30.30,WNW,288,0.0,10.0,73,0.00,,OVC023,0.02,VWS V15.00,2013-12-23 16:00:00,
2013-12-23 11:04:00,33.2,25.5,30.30,WNW,295,1.0,10.0,73,0.00,,OVC023,0.02,VWS V15.00,2013-12-23 16:04:00,
2013-12-23 11:09:00,33.1,25.1,30.30,NW,304,6.0,10.0,72,0.00,,OVC023,0.02,VWS V15.00,2013-12-23 16:09:00,
2013-12-23 11:14:00,33.1,24.7,30.30,NW,319,2.0,11.0,71,0.00,,OVC023,0.02,VWS V15.00,2013-12-23 16:14:00,
2013-12-23 11:15:00,33.1,25.1,30.31,West,261,4.0,11.0,72,0.00,,CLR,0.02,VWS V15.00,2013-12-23 16:15:00,
2013-12-23 11:19:00,33.2,25.2,30.31,NW,304,0.0,7.0,72,0.00,,OVC023,0.02,VWS V15.00,2013-12-23 16:19:00,
2013-12-23 11:24:00,33.2,24.8,30.31,WNW,296,2.0,10.0,71,0.00,,OVC023,0.02,VWS V15.00,2013-12-23 16:24:00,
2013-12-23 11:29:00,33.2,24.8,30.31,NW,322,4.0,11.0,71,0.00,,OVC023,0.02,VWS V15.00,2013-12-23 16:29:00,
2013-12-23 11:30:00,33.2,24.8,30.31,WNW,302,0.0,11.0,71,0.00,,CLR,0.02,VWS V15.00,2013-12-23 16:30:00,
2013-12-23 11:34:00,33.1,24.4,30.31,NW,318,0.0,11.0,70,0.00,,OVC023,0.02,VWS V15.00,2013-12-23 16:34:00,
2013-12-23 11:39:00,33.1,24.4,30.31,WNW,288,0.0,10.0,70,0.00,,OVC023,0.02,VWS V15.00,2013-12-23 16:39:00,
2013-12-23 11:44:00,33.2,24.8,30.31,West,260,0.0,9.0,71,0.00,,OVC023,0.02,VWS V15.00,2013-12-23 16:44:00,
2013-12-23 11:45:00,33.2,24.8,30.31,WSW,251,3.0,7.0,71,0.00,,CLR,0.02,VWS V15.00,2013-12-23 16:45:00,
2013-12-23 11:49:00,33.2,24.8,30.31,WNW,287,4.0,13.0,71,0.00,,OVC023,0.02,VWS V15.00,2013-12-23 16:49:00,
2013-12-23 11:53:00,33.2,24.5,30.31,SW,219,0.0,13.0,70,0.00,,OVC023,0.02,VWS V15.00,2013-12-23 16:53:00,
2013-12-23 11:59:00,33.1,24.4,30.31,West,281,6.0,8.0,70,0.00,,OVC023,0.02,VWS V15.00,2013-12-23 16:59:00,
2013-12-23 12:00:00,33.1,24.7,30.31,WNW,296,3.0,8.0,71,0.00,,CLR,0.02,VWS V15.00,2013-12-23 17:00:00,
2013-12-23 12:04:00,33.1,24.7,30.31,West,265,5.0,11.0,71,0.00,,OVC023,0.02,VWS V15.00,2013-12-23 17:04:00,
2013-12-23 12:09:00,33.1,25.1,30.31,NNW,336,1.0,11.0,72,0.00,,OVC023,0.02,VWS V15.00,2013-12-23 17:09:00,
2013-12-23 12:14:00,33.2,25.2,30.31,West,281,0.0,8.0,72,0.00,,OVC023,0.02,VWS V15.00,2013-12-23 17:14:00,
2013-12-23 12:15:00,33.2,25.2,30.32,West,281,0.0,8.0,72,0.00,,CLR,0.02,VWS V15.00,2013-12-23 17:15:00,
2013-12-23 12:19:00,33.1,24.4,30.32,WNW,291,7.0,11.0,70,0.00,,OVC023,0.02,VWS V15.00,2013-12-23 17:19:00,
2013-12-23 12:24:00,33.1,24.4,30.32,WSW,254,3.0,8.0,70,0.00,,OVC023,0.02,VWS V15.00,2013-12-23 17:24:00,
2013-12-23 12:28:00,33.1,24.4,30.32,West,281,7.0,11.0,70,0.00,,OVC023,0.02,VWS V15.00,2013-12-23 17:28:00,
2013-12-23 12:30:00,33.1,24.4,30.32,WSW,256,2.0,18.0,70,0.00,,CLR,0.02,VWS V15.00,2013-12-23 17:30:00,
2013-12-23 12:33:00,33.1,24.4,30.32,NW,309,7.0,18.0,70,0.00,,OVC023,0.02,VWS V15.00,2013-12-23 17:33:00,
2013-12-23 12:38:00,33.1,24.4,30.32,West,265,7.0,10.0,70,0.00,,OVC023,0.02,VWS V15.00,2013-12-23 17:38:00,
2013-12-23 12:43:00,33.2,24.5,30.32,SW,232,0.0,10.0,70,0.00,,OVC023,0.02,VWS V15.00,2013-12-23 17:43:00,
2013-12-23 12:45:00,33.2,24.5,30.32,WSW,254,1.0,10.0,70,0.00,,CLR,0.02,VWS V15.00,2013-12-23 17:45:00,
2013-12-23 12:48:00,33.2,24.5,30.32,NW,315,0.0,7.0,70,0.00,,OVC023,0.02,VWS V15.00,2013-12-23 17:48:00,
2013-12-23 12:53:00,33.2,24.5,30.32,NW,318,0.0,7.0,70,0.00,,OVC023,0.02,VWS V15.00,2013-12-23 17:53:00,
2013-12-23 12:58:00,33.1,24.7,30.32,NNW,335,1.0,7.0,71,0.00,,OVC023,0.02,VWS V15.00,2013-12-23 17:58:00,
2013-12-23 13:00:00,32.9,24.5,30.32,NW,304,0.0,7.0,71,0.00,,CLR,0.02,VWS V15.00,2013-12-23 18:00:00,
2013-12-23 13:03:00,33.1,25.1,30.32,WSW,256,0.0,5.0,72,0.00,,OVC023,0.02,VWS V15.00,2013-12-23 18:03:00,
2013-12-23 13:08:00,33.1,25.1,30.32,NW,316,3.0,7.0,72,0.00,,OVC023,0.02,VWS V15.00,2013-12-23 18:08:00,
2013-12-23 13:13:00,33.1,25.1,30.32,WSW,254,6.0,8.0,72,0.00,,OVC023,0.02,VWS V15.00,2013-12-23 18:13:00,
2013-12-23 13:15:00,33.2,25.2,30.32,WSW,250,0.0,8.0,72,0.00,,CLR,0.02,VWS V15.00,2013-12-23 18:15:00,
2013-12-23 13:18:00,33.1,24.4,30.32,NW,305,0.0,8.0,70,0.00,,OVC023,0.02,VWS V15.00,2013-12-23 18:18:00,
2013-12-23 13:23:00,33.1,24.0,30.32,NNW,330,2.0,7.0,69,0.00,,OVC023,0.02,VWS V15.00,2013-12-23 18:23:00,
2013-12-23 13:28:00,33.2,24.5,30.32,West,270,0.0,7.0,70,0.00,,OVC023,0.02,VWS V15.00,2013-12-23 18:28:00,
2013-12-23 13:30:00,33.2,24.5,30.32,West,267,2.0,7.0,70,0.00,,CLR,0.02,VWS V15.00,2013-12-23 18:30:00,
2013-12-23 13:33:00,33.4,24.3,30.32,West,270,0.0,10.0,69,0.00,,OVC023,0.02,VWS V15.00,2013-12-23 18:33:00,
2013-12-23 13:38:00,33.5,24.4,30.32,WSW,258,0.0,10.0,69,0.00,,OVC023,0.02,VWS V15.00,2013-12-23 18:38:00,
2013-12-23 13:43:00,33.7,24.6,30.32,West,261,4.0,5.0,69,0.00,,OVC023,0.02,VWS V15.00,2013-12-23 18:43:00,
2013-12-23 13:45:00,33.7,24.6,30.32,WSW,243,0.0,6.0,69,0.00,,CLR,0.02,VWS V15.00,2013-12-23 18:45:00,
2013-12-23 13:48:00,33.7,24.3,30.32,West,260,4.0,8.0,68,0.00,,OVC023,0.02,VWS V15.00,2013-12-23 18:48:00,
2013-12-23 13:53:00,33.5,24.4,30.32,West,278,5.0,8.0,69,0.00,,OVC023,0.02,VWS V15.00,2013-12-23 18:53:00,
2013-12-23 13:58:00,33.5,24.8,30.32,SW,230,0.0,8.0,70,0.00,,OVC023,0.02,VWS V15.00,2013-12-23 18:58:00,
2013-12-23 14:00:00,33.7,25.0,30.32,WNW,291,5.0,8.0,70,0.00,,CLR,0.02,VWS V15.00,2013-12-23 19:00:00,
2013-12-23 14:03:00,33.7,24.6,30.32,West,263,0.0,7.0,69,0.00,,OVC025,0.02,VWS V15.00,2013-12-23 19:03:00,
2013-12-23 14:08:00,33.8,25.1,30.32,West,272,7.0,7.0,70,0.00,,OVC025,0.02,VWS V15.00,2013-12-23 19:08:00,
2013-12-23 14:13:00,33.8,24.7,30.32,SW,224,0.0,7.0,69,0.00,,OVC025,0.02,VWS V15.00,2013-12-23 19:13:00,
2013-12-23 14:15:00,33.8,24.7,30.33,WNW,282,5.0,8.0,69,0.00,,CLR,0.02,VWS V15.00,2013-12-23 19:15:00,
2013-12-23 14:18:00,33.7,25.0,30.33,NNW,342,2.0,8.0,70,0.00,,OVC025,0.02,VWS V15.00,2013-12-23 19:18:00,
2013-12-23 14:23:00,33.7,25.3,30.33,WSW,244,4.0,7.0,71,0.00,,OVC025,0.02,VWS V15.00,2013-12-23 19:23:00,
2013-12-23 14:28:00,33.7,25.0,30.33,WNW,292,7.0,11.0,70,0.00,,OVC025,0.02,VWS V15.00,2013-12-23 19:28:00,
2013-12-23 14:30:00,33.5,24.4,30.33,WSW,250,10.0,11.0,69,0.00,,CLR,0.02,VWS V15.00,2013-12-23 19:30:00,
2013-12-23 14:33:00,33.5,24.4,30.33,West,267,0.0,11.0,69,0.00,,OVC025,0.02,VWS V15.00,2013-12-23 19:33:00,
2013-12-23 14:38:00,33.7,24.6,30.33,WNW,292,6.0,7.0,69,0.00,,OVC025,0.02,VWS V15.00,2013-12-23 19:38:00,
2013-12-23 14:43:00,33.8,24.0,30.33,West,265,0.0,11.0,67,0.00,,OVC025,0.02,VWS V15.00,2013-12-23 19:43:00,
2013-12-23 14:45:00,33.8,24.0,30.33,NNW,329,0.0,11.0,67,0.00,,CLR,0.02,VWS V15.00,2013-12-23 19:45:00,
2013-12-23 14:48:00,33.8,23.7,30.33,WSW,258,6.0,11.0,66,0.00,,OVC025,0.02,VWS V15.00,2013-12-23 19:48:00,
2013-12-23 14:53:00,33.7,23.9,30.33,WNW,299,0.0,8.0,67,0.00,,OVC025,0.02,VWS V15.00,2013-12-23 19:53:00,
2013-12-23 14:58:00,33.5,23.4,30.33,WNW,285,0.0,8.0,66,0.00,,OVC025,0.02,VWS V15.00,2013-12-23 19:58:00,
2013-12-23 15:00:00,33.5,23.4,30.33,WNW,296,0.0,7.0,66,0.00,,CLR,0.02,VWS V15.00,2013-12-23 20:00:00,
2013-12-23 15:04:00,33.4,23.6,30.33,West,278,7.0,8.0,67,0.00,,OVC029,0.02,VWS V15.00,2013-12-23 20:04:00,
2013-12-23 15:08:00,33.4,23.6,30.33,WNW,285,0.0,8.0,67,0.00,,OVC029,0.02,VWS V15.00,2013-12-23 20:08:00,
2013-12-23 15:13:00,33.4,23.3,30.33,West,268,3.0,8.0,66,0.00,,OVC029,0.02,VWS V15.00,2013-12-23 20:13:00,
2013-12-23 15:15:00,33.4,23.3,30.33,WSW,258,0.0,8.0,66,0.00,,CLR,0.02,VWS V15.00,2013-12-23 20:15:00,
2013-12-23 15:19:00,33.4,23.3,30.33,WSW,254,0.0,8.0,66,0.00,,OVC029,0.02,VWS V15.00,2013-12-23 20:19:00,
2013-12-23 15:23:00,33.2,23.1,30.33,NW,306,0.0,8.0,66,0.00,,OVC029,0.02,VWS V15.00,2013-12-23 20:23:00,
2013-12-23 15:29:00,33.4,23.6,30.33,West,265,3.0,11.0,67,0.00,,OVC029,0.02,VWS V15.00,2013-12-23 20:29:00,
2013-12-23 15:30:00,33.2,23.8,30.33,West,270,0.0,11.0,68,0.00,,CLR,0.02,VWS V15.00,2013-12-23 20:30:00,
2013-12-23 15:34:00,33.2,23.8,30.33,West,265,3.0,11.0,68,0.00,,OVC029,0.02,VWS V15.00,2013-12-23 20:34:00,
2013-12-23 15:39:00,33.1,24.0,30.33,WNW,287,0.0,5.0,69,0.00,,OVC029,0.02,VWS V15.00,2013-12-23 20:39:00,
2013-12-23 15:44:00,33.1,24.0,30.33,West,267,0.0,7.0,69,0.00,,OVC029,0.02,VWS V15.00,2013-12-23 20:44:00,
2013-12-23 15:45:00,33.1,24.0,30.33,WSW,244,3.0,7.0,69,0.00,,CLR,0.02,VWS V15.00,2013-12-23 20:45:00,
2013-12-23 15:48:00,32.9,23.9,30.33,WNW,287,0.0,6.0,69,0.00,,OVC029,0.02,VWS V15.00,2013-12-23 20:48:00,
2013-12-23 15:54:00,33.1,24.0,30.33,West,264,0.0,6.0,69,0.00,,OVC029,0.02,VWS V15.00,2013-12-23 20:54:00,
2013-12-23 15:58:00,32.9,23.2,30.33,West,271,3.0,7.0,67,0.00,,OVC029,0.02,VWS V15.00,2013-12-23 20:58:00,
2013-12-23 16:00:00,32.9,23.2,30.34,West,267,0.0,7.0,67,0.00,,CLR,0.02,VWS V15.00,2013-12-23 21:00:00,
2013-12-23 16:03:00,32.9,23.2,30.34,WNW,295,0.0,6.0,67,0.00,,OVC025,0.02,VWS V15.00,2013-12-23 21:03:00,
2013-12-23 16:08:00,32.9,23.2,30.34,NW,322,0.0,6.0,67,0.00,,OVC025,0.02,VWS V15.00,2013-12-23 21:08:00,
2013-12-23 16:13:00,32.9,23.5,30.34,WSW,253,1.0,8.0,68,0.00,,OVC025,0.02,VWS V15.00,2013-12-23 21:13:00,
2013-12-23 16:15:00,32.8,23.4,30.34,WSW,248,0.0,8.0,68,0.00,,CLR,0.02,VWS V15.00,2013-12-23 21:15:00,
2013-12-23 16:19:00,32.7,23.0,30.34,WSW,254,2.0,11.0,67,0.00,,OVC025,0.02,VWS V15.00,2013-12-23 21:19:00,
2013-12-23 16:24:00,32.4,22.7,30.34,West,268,1.0,8.0,67,0.00,,OVC025,0.02,VWS V15.00,2013-12-23 21:24:00,
2013-12-23 16:29:00,32.4,22.7,30.34,WSW,243,0.0,8.0,67,0.00,,OVC025,0.02,VWS V15.00,2013-12-23 21:29:00,
2013-12-23 16:30:00,32.4,22.3,30.35,SW,216,0.0,8.0,66,0.00,,CLR,0.02,VWS V15.00,2013-12-23 21:30:00,
2013-12-23 16:34:00,32.2,22.1,30.35,NW,313,0.0,7.0,66,0.00,,OVC025,0.02,VWS V15.00,2013-12-23 21:34:00,
2013-12-23 16:39:00,32.1,22.0,30.35,SSW,210,0.0,7.0,66,0.00,,OVC025,0.02,VWS V15.00,2013-12-23 21:39:00,
2013-12-23 16:44:00,31.9,21.5,30.35,WNW,294,2.0,10.0,65,0.00,,OVC025,0.02,VWS V15.00,2013-12-23 21:44:00,
2013-12-23 16:45:00,31.9,21.5,30.36,West,280,1.0,10.0,65,0.00,,CLR,0.02,VWS V15.00,2013-12-23 21:45:00,
2013-12-23 16:49:00,31.8,21.8,30.36,NW,316,0.0,10.0,66,0.00,,OVC025,0.02,VWS V15.00,2013-12-23 21:49:00,
2013-12-23 16:54:00,31.6,21.6,30.36,WNW,285,5.0,7.0,66,0.00,,OVC025,0.02,VWS V15.00,2013-12-23 21:54:00,
2013-12-23 16:59:00,31.6,21.6,30.36,West,272,0.0,10.0,66,0.00,,OVC025,0.02,VWS V15.00,2013-12-23 21:59:00,
2013-12-23 17:00:00,31.6,21.6,30.36,West,278,0.0,10.0,66,0.00,,CLR,0.02,VWS V15.00,2013-12-23 22:00:00,
2013-12-23 17:04:00,31.6,21.6,30.36,WSW,253,0.0,10.0,66,0.00,,OVC027,0.02,VWS V15.00,2013-12-23 22:04:00,
2013-12-23 17:09:00,31.6,21.6,30.36,WNW,282,0.0,5.0,66,0.00,,OVC027,0.02,VWS V15.00,2013-12-23 22:09:00,
2013-12-23 17:14:00,31.5,21.5,30.36,WSW,250,3.0,5.0,66,0.00,,OVC027,0.02,VWS V15.00,2013-12-23 22:14:00,
2013-12-23 17:15:00,31.5,21.5,30.35,WSW,243,0.0,5.0,66,0.00,,CLR,0.02,VWS V15.00,2013-12-23 22:15:00,
2013-12-23 17:18:00,31.3,21.3,30.35,WSW,254,5.0,6.0,66,0.00,,OVC027,0.02,VWS V15.00,2013-12-23 22:18:00,
2013-12-23 17:24:00,31.3,21.3,30.35,WNW,288,0.0,6.0,66,0.00,,OVC027,0.02,VWS V15.00,2013-12-23 22:24:00,
2013-12-23 17:29:00,31.5,21.8,30.35,WSW,254,1.0,2.0,67,0.00,,OVC027,0.02,VWS V15.00,2013-12-23 22:29:00,
2013-12-23 17:30:00,31.5,21.8,30.36,WSW,253,0.0,5.0,67,0.00,,CLR,0.02,VWS V15.00,2013-12-23 22:30:00,
2013-12-23 17:33:00,31.6,21.9,30.36,West,264,4.0,5.0,67,0.00,,OVC027,0.02,VWS V15.00,2013-12-23 22:33:00,
2013-12-23 17:38:00,31.3,20.9,30.36,WNW,292,0.0,4.0,65,0.00,,OVC027,0.02,VWS V15.00,2013-12-23 22:38:00,
2013-12-23 17:43:00,31.3,21.3,30.36,West,260,0.0,4.0,66,0.00,,OVC027,0.02,VWS V15.00,2013-12-23 22:43:00,
2013-12-23 17:45:00,31.3,20.9,30.36,West,281,0.0,4.0,65,0.00,,CLR,0.02,VWS V15.00,2013-12-23 22:45:00,
2013-12-23 17:48:00,31.3,20.9,30.36,WSW,244,2.0,4.0,65,0.00,,OVC027,0.02,VWS V15.00,2013-12-23 22:48:00,
2013-12-23 17:53:00,31.2,20.8,30.36,SW,230,0.0,6.0,65,0.00,,OVC027,0.02,VWS V15.00,2013-12-23 22:53:00,
2013-12-23 17:59:00,31.0,20.3,30.36,SW,229,0.0,6.0,64,0.00,,OVC027,0.02,VWS V15.00,2013-12-23 22:59:00,
2013-12-23 18:00:00,31.0,20.3,30.36,SW,229,0.0,6.0,64,0.00,,CLR,0.02,VWS V15.00,2013-12-23 23:00:00,
2013-12-23 18:03:00,31.2,21.2,30.36,SW,229,0.0,3.0,66,0.00,,OVC029,0.02,VWS V15.00,2013-12-23 23:03:00,
2013-12-23 18:09:00,31.3,21.3,30.36,SW,229,0.0,0.0,66,0.00,,OVC029,0.02,VWS V15.00,2013-12-23 23:09:00,
2013-12-23 18:13:00,31.5,21.5,30.36,SW,229,0.0,0.0,66,0.00,,OVC029,0.02,VWS V15.00,2013-12-23 23:13:00,
2013-12-23 18:15:00,31.5,21.5,30.36,SW,229,0.0,0.0,66,0.00,,CLR,0.02,VWS V15.00,2013-12-23 23:15:00,
2013-12-23 18:19:00,31.6,21.6,30.36,SW,229,0.0,0.0,66,0.00,,OVC029,0.02,VWS V15.00,2013-12-23 23:19:00,
2013-12-23 18:23:00,31.6,21.2,30.36,West,261,0.0,5.0,65,0.00,,OVC029,0.02,VWS V15.00,2013-12-23 23:23:00,
2013-12-23 18:28:00,31.6,21.6,30.36,WSW,250,0.0,5.0,66,0.00,,OVC029,0.02,VWS V15.00,2013-12-23 23:28:00,
2013-12-23 18:30:00,31.8,21.8,30.36,WSW,250,0.0,5.0,66,0.00,,CLR,0.02,VWS V15.00,2013-12-23 23:30:00,
2013-12-23 18:33:00,31.8,21.8,30.36,WSW,246,0.0,4.0,66,0.00,,OVC029,0.02,VWS V15.00,2013-12-23 23:33:00,
2013-12-23 18:38:00,31.5,21.5,30.36,WSW,251,0.0,8.0,66,0.00,,OVC029,0.02,VWS V15.00,2013-12-23 23:38:00,
2013-12-23 18:43:00,31.5,21.5,30.36,WSW,237,2.0,6.0,66,0.00,,OVC029,0.02,VWS V15.00,2013-12-23 23:43:00,
2013-12-23 18:45:00,31.5,21.5,30.37,WSW,237,0.0,6.0,66,0.00,,CLR,0.02,VWS V15.00,2013-12-23 23:45:00,
2013-12-23 18:48:00,31.3,20.9,30.37,WSW,243,4.0,11.0,65,0.00,,OVC029,0.02,VWS V15.00,2013-12-23 23:48:00,
2013-12-23 18:53:00,31.3,20.9,30.37,West,270,0.0,11.0,65,0.00,,OVC029,0.02,VWS V15.00,2013-12-23 23:53:00,
2013-12-23 18:58:00,31.3,20.5,30.37,WNW,302,0.0,8.0,64,0.00,,OVC029,0.02,VWS V15.00,2013-12-23 23:58:00,
2013-12-23 19:00:00,31.3,20.5,30.37,WNW,284,0.0,6.0,64,0.00,,CLR,0.02,VWS V15.00,2013-12-24 00:00:00,
2013-12-23 19:03:00,31.3,20.5,30.37,WSW,250,1.0,5.0,64,0.00,,OVC029,0.02,VWS V15.00,2013-12-24 00:03:00,
2013-12-23 19:08:00,31.3,20.9,30.37,West,270,0.0,7.0,65,0.00,,OVC029,0.02,VWS V15.00,2013-12-24 00:08:00,
2013-12-23 19:13:00,31.3,21.3,30.37,WSW,256,6.0,8.0,66,0.00,,OVC029,0.02,VWS V15.00,2013-12-24 00:13:00,
2013-12-23 19:15:00,31.2,21.2,30.38,WNW,291,5.0,8.0,66,0.00,,CLR,0.02,VWS V15.00,2013-12-24 00:15:00,
2013-12-23 19:18:00,31.2,21.2,30.38,West,265,1.0,8.0,66,0.00,,OVC029,0.02,VWS V15.00,2013-12-24 00:18:00,
2013-12-23 19:23:00,31.2,21.5,30.38,West,268,0.0,6.0,67,0.00,,OVC029,0.02,VWS V15.00,2013-12-24 00:23:00,
2013-12-23 19:28:00,31.2,21.2,30.38,West,272,1.0,10.0,66,0.00,,OVC029,0.02,VWS V15.00,2013-12-24 00:28:00,
2013-12-23 19:30:00,31.2,21.2,30.38,West,271,0.0,10.0,66,0.00,,CLR,0.02,VWS V15.00,2013-12-24 00:30:00,
2013-12-23 19:33:00,31.2,20.8,30.38,NNW,330,0.0,7.0,65,0.00,,OVC029,0.02,VWS V15.00,2013-12-24 00:33:00,
2013-12-23 19:38:00,31.0,20.3,30.38,WNW,299,0.0,7.0,64,0.00,,OVC029,0.02,VWS V15.00,2013-12-24 00:38:00,
2013-12-23 19:43:00,31.0,20.6,30.38,WSW,244,0.0,6.0,65,0.00,,OVC029,0.02,VWS V15.00,2013-12-24 00:43:00,
2013-12-23 19:45:00,31.0,20.6,30.37,West,261,3.0,6.0,65,0.00,,CLR,0.02,VWS V15.00,2013-12-24 00:45:00,
2013-12-23 19:48:00,31.0,20.6,30.37,West,265,3.0,6.0,65,0.00,,OVC029,0.02,VWS V15.00,2013-12-24 00:48:00,
2013-12-23 19:53:00,30.9,20.9,30.37,West,267,0.0,5.0,66,0.00,,OVC029,0.02,VWS V15.00,2013-12-24 00:53:00,
2013-12-23 19:58:00,30.9,20.5,30.37,WNW,284,0.0,3.0,65,0.00,,OVC029,0.02,VWS V15.00,2013-12-24 00:58:00,
2013-12-23 20:00:00,30.9,20.5,30.37,WNW,284,0.0,3.0,65,0.00,,CLR,0.02,VWS V15.00,2013-12-24 01:00:00,
2013-12-23 20:03:00,30.9,20.9,30.37,WNW,284,0.0,0.0,66,0.00,,OVC029,0.02,VWS V15.00,2013-12-24 01:03:00,
2013-12-23 20:08:00,31.0,20.6,30.37,West,260,0.0,0.0,65,0.00,,OVC029,0.02,VWS V15.00,2013-12-24 01:08:00,
2013-12-23 20:13:00,30.9,20.5,30.37,NNW,335,0.0,6.0,65,0.00,,OVC029,0.02,VWS V15.00,2013-12-24 01:13:00,
2013-12-23 20:15:00,30.9,20.5,30.36,NNW,330,0.0,6.0,65,0.00,,CLR,0.02,VWS V15.00,2013-12-24 01:15:00,
2013-12-23 20:18:00,30.7,20.0,30.36,NW,312,2.0,6.0,64,0.00,,OVC029,0.02,VWS V15.00,2013-12-24 01:18:00,
2013-12-23 20:23:00,30.6,19.9,30.36,NW,311,2.0,6.0,64,0.00,,OVC029,0.02,VWS V15.00,2013-12-24 01:23:00,
2013-12-23 20:28:00,30.6,19.9,30.36,West,271,1.0,5.0,64,0.00,,OVC029,0.02,VWS V15.00,2013-12-24 01:28:00,
2013-12-23 20:30:00,30.6,19.9,30.36,West,271,0.0,5.0,64,0.00,,CLR,0.02,VWS V15.00,2013-12-24 01:30:00,
2013-12-23 20:33:00,30.6,19.9,30.36,West,274,2.0,7.0,64,0.00,,OVC029,0.02,VWS V15.00,2013-12-24 01:33:00,
2013-12-23 20:38:00,30.6,19.9,30.36,WNW,282,4.0,7.0,64,0.00,,OVC029,0.02,VWS V15.00,2013-12-24 01:38:00,
2013-12-23 20:43:00,30.4,19.7,30.36,West,265,4.0,7.0,64,0.00,,OVC029,0.02,VWS V15.00,2013-12-24 01:43:00,
2013-12-23 20:45:00,30.4,19.3,30.37,West,271,0.0,7.0,63,0.00,,CLR,0.02,VWS V15.00,2013-12-24 01:45:00,
2013-12-23 20:48:00,30.3,19.2,30.37,West,268,0.0,6.0,63,0.00,,OVC029,0.02,VWS V15.00,2013-12-24 01:48:00,
2013-12-23 20:53:00,30.3,19.6,30.37,West,265,0.0,3.0,64,0.00,,OVC029,0.02,VWS V15.00,2013-12-24 01:53:00,
2013-12-23 20:58:00,30.3,19.6,30.37,West,272,0.0,3.0,64,0.00,,OVC029,0.02,VWS V15.00,2013-12-24 01:58:00,
2013-12-23 21:00:00,30.3,19.6,30.37,West,272,0.0,3.0,64,0.00,,CLR,0.02,VWS V15.00,2013-12-24 02:00:00,
2013-12-23 21:03:00,30.4,19.7,30.37,WNW,299,0.0,3.0,64,0.00,,OVC029,0.02,VWS V15.00,2013-12-24 02:03:00,
2013-12-23 21:08:00,30.4,19.7,30.37,WNW,301,0.0,2.0,64,0.00,,OVC029,0.02,VWS V15.00,2013-12-24 02:08:00,
2013-12-23 21:13:00,30.6,19.9,30.37,West,271,3.0,3.0,64,0.00,,OVC029,0.02,VWS V15.00,2013-12-24 02:13:00,
2013-12-23 21:15:00,30.6,19.9,30.36,WNW,299,0.0,7.0,64,0.00,,CLR,0.02,VWS V15.00,2013-12-24 02:15:00,
2013-12-23 21:18:00,30.3,20.0,30.36,NW,323,0.0,7.0,65,0.00,,OVC029,0.02,VWS V15.00,2013-12-24 02:18:00,
2013-12-23 21:23:00,30.3,20.0,30.36,NW,323,0.0,5.0,65,0.00,,OVC029,0.02,VWS V15.00,2013-12-24 02:23:00,
2013-12-23 21:28:00,30.1,20.1,30.36,West,277,2.0,7.0,66,0.00,,OVC029,0.02,VWS V15.00,2013-12-24 02:28:00,
2013-12-23 21:30:00,30.1,20.1,30.36,WNW,291,0.0,7.0,66,0.00,,CLR,0.02,VWS V15.00,2013-12-24 02:30:00,
2013-12-23 21:33:00,30.1,20.1,30.36,NW,312,0.0,7.0,66,0.00,,OVC029,0.02,VWS V15.00,2013-12-24 02:33:00,
2013-12-23 21:38:00,30.3,20.3,30.36,NW,312,0.0,4.0,66,0.00,,OVC029,0.02,VWS V15.00,2013-12-24 02:38:00,
2013-12-23 21:43:00,30.1,20.1,30.36,NW,312,0.0,6.0,66,0.00,,OVC029,0.02,VWS V15.00,2013-12-24 02:43:00,
2013-12-23 21:45:00,30.3,20.3,30.36,WNW,292,0.0,6.0,66,0.00,,CLR,0.02,VWS V15.00,2013-12-24 02:45:00,
2013-12-23 21:48:00,30.3,20.3,30.36,WNW,292,0.0,3.0,66,0.00,,OVC029,0.02,VWS V15.00,2013-12-24 02:48:00,
2013-12-23 21:53:00,30.3,20.3,30.36,West,261,0.0,4.0,66,0.00,,OVC029,0.02,VWS V15.00,2013-12-24 02:53:00,
2013-12-23 21:58:00,30.4,20.8,30.36,NW,313,0.0,7.0,67,0.00,,OVC029,0.02,VWS V15.00,2013-12-24 02:58:00,
2013-12-23 22:00:00,30.4,20.4,30.36,West,281,3.0,7.0,66,0.00,,CLR,0.02,VWS V15.00,2013-12-24 03:00:00,
2013-12-23 22:03:00,30.3,20.3,30.36,West,270,0.0,7.0,66,0.00,,OVC025,0.02,VWS V15.00,2013-12-24 03:03:00,
2013-12-23 22:08:00,30.3,20.3,30.36,SW,217,0.0,5.0,66,0.00,,OVC025,0.02,VWS V15.00,2013-12-24 03:08:00,
2013-12-23 22:13:00,30.3,20.3,30.36,West,272,0.0,5.0,66,0.00,,OVC025,0.02,VWS V15.00,2013-12-24 03:13:00,
2013-12-23 22:15:00,30.3,20.3,30.36,West,280,0.0,0.0,66,0.00,,CLR,0.02,VWS V15.00,2013-12-24 03:15:00,
2013-12-23 22:18:00,30.1,20.1,30.36,SW,217,0.0,3.0,66,0.00,,OVC025,0.02,VWS V15.00,2013-12-24 03:18:00,
2013-12-23 22:23:00,30.1,20.5,30.36,WSW,258,6.0,7.0,67,0.00,,OVC025,0.02,VWS V15.00,2013-12-24 03:23:00,
2013-12-23 22:28:00,30.0,20.7,30.36,WNW,284,0.0,7.0,68,0.00,,OVC025,0.02,VWS V15.00,2013-12-24 03:28:00,
2013-12-23 22:30:00,30.0,20.7,30.37,West,267,6.0,7.0,68,0.00,,CLR,0.02,VWS V15.00,2013-12-24 03:30:00,
2013-12-23 22:33:00,30.0,20.7,30.37,West,271,0.0,8.0,68,0.00,,OVC025,0.02,VWS V15.00,2013-12-24 03:33:00,
2013-12-23 22:38:00,29.8,20.2,30.37,West,281,4.0,8.0,67,0.00,,OVC025,0.02,VWS V15.00,2013-12-24 03:38:00,
2013-12-23 22:43:00,29.7,20.1,30.37,WSW,250,0.0,10.0,67,0.00,,OVC025,0.02,VWS V15.00,2013-12-24 03:43:00,
2013-12-23 22:45:00,29.7,20.1,30.37,West,275,3.0,10.0,67,0.00,,CLR,0.02,VWS V15.00,2013-12-24 03:45:00,
2013-12-23 22:48:00,29.5,19.6,30.37,SW,223,0.0,6.0,66,0.00,,OVC025,0.02,VWS V15.00,2013-12-24 03:48:00,
2013-12-23 22:53:00,29.5,19.9,30.37,SW,223,2.0,6.0,67,0.00,,OVC025,0.02,VWS V15.00,2013-12-24 03:53:00,
2013-12-23 22:58:00,29.7,20.1,30.37,West,260,0.0,3.0,67,0.00,,OVC025,0.02,VWS V15.00,2013-12-24 03:58:00,
2013-12-23 23:00:00,29.7,20.1,30.37,WSW,258,0.0,3.0,67,0.00,,CLR,0.02,VWS V15.00,2013-12-24 04:00:00,
2013-12-23 23:03:00,29.7,20.1,30.37,West,271,0.0,3.0,67,0.00,,OVC029,0.02,VWS V15.00,2013-12-24 04:03:00,
2013-12-23 23:08:00,29.5,19.6,30.37,West,278,0.0,6.0,66,0.00,,OVC029,0.02,VWS V15.00,2013-12-24 04:08:00,
2013-12-23 23:13:00,29.5,19.9,30.37,WNW,287,0.0,6.0,67,0.00,,OVC029,0.02,VWS V15.00,2013-12-24 04:13:00,
2013-12-23 23:15:00,29.5,19.9,30.37,WNW,287,0.0,5.0,67,0.00,,CLR,0.02,VWS V15.00,2013-12-24 04:15:00,
2013-12-23 23:18:00,29.5,19.6,30.37,SW,233,3.0,10.0,66,0.00,,OVC029,0.02,VWS V15.00,2013-12-24 04:18:00,
2013-12-23 23:23:00,29.4,19.8,30.37,WNW,285,0.0,10.0,67,0.00,,OVC029,0.02,VWS V15.00,2013-12-24 04:23:00,
2013-12-23 23:28:00,29.3,19.7,30.37,NW,306,0.0,6.0,67,0.00,,OVC029,0.02,VWS V15.00,2013-12-24 04:28:00,
2013-12-23 23:30:00,29.1,19.5,30.37,WSW,257,4.0,7.0,67,0.00,,CLR,0.02,VWS V15.00,2013-12-24 04:30:00,
2013-12-23 23:33:00,29.1,19.5,30.37,West,272,0.0,7.0,67,0.00,,OVC029,0.02,VWS V15.00,2013-12-24 04:33:00,
2013-12-23 23:38:00,29.0,19.8,30.37,NW,311,0.0,5.0,68,0.00,,OVC029,0.02,VWS V15.00,2013-12-24 04:38:00,
2013-12-23 23:43:00,29.0,19.8,30.37,NW,306,0.0,6.0,68,0.00,,OVC029,0.02,VWS V15.00,2013-12-24 04:43:00,
2013-12-23 23:45:00,29.0,19.4,30.37,NW,304,1.0,6.0,67,0.00,,CLR,0.02,VWS V15.00,2013-12-24 04:45:00,
2013-12-23 23:48:00,28.8,19.6,30.37,West,268,2.0,6.0,68,0.00,,OVC029,0.02,VWS V15.00,2013-12-24 04:48:00,
2013-12-23 23:53:00,28.8,19.2,30.37,West,263,0.0,7.0,67,0.00,,OVC029,0.02,VWS V15.00,2013-12-24 04:53:00,
2013-12-23 23:58:00,28.7,19.1,30.37,West,270,0.0,8.0,67,0.00,,OVC029,0.02,VWS V15.00,2013-12-24 04:58:00,